createdAt,value
2018-07-11T00:01:59.555Z,15.20
2018-07-11T00:04:27.706Z,15.10
2018-07-11T00:06:55.822Z,15.10
2018-07-11T00:09:24.043Z,15.10
2018-07-11T00:11:52.234Z,15.10
2018-07-11T00:14:20.391Z,15.10
2018-07-11T00:16:54.243Z,15.10
2018-07-11T00:19:22.545Z,15.00
2018-07-11T00:21:50.627Z,15.00
2018-07-11T00:24:18.850Z,15.00
2018-07-11T00:26:47.011Z,15.00
2018-07-11T00:29:15.191Z,15.00
2018-07-11T00:31:43.853Z,14.90
2018-07-11T00:34:12.016Z,14.90
2018-07-11T00:36:40.115Z,14.90
2018-07-11T00:39:08.236Z,14.90
2018-07-11T00:41:36.309Z,14.90
2018-07-11T00:44:04.407Z,14.80
2018-07-11T00:46:32.538Z,14.80
2018-07-11T00:49:00.624Z,14.70
2018-07-11T00:51:28.715Z,14.70
2018-07-11T00:53:56.768Z,14.70
2018-07-11T00:56:24.870Z,14.70
2018-07-11T00:59:03.046Z,14.70
2018-07-11T01:01:31.431Z,14.60
2018-07-11T01:04:01.172Z,14.70
2018-07-11T01:11:25.764Z,14.90
2018-07-11T01:13:53.867Z,14.90
2018-07-11T01:16:23.403Z,14.90
2018-07-11T01:19:08.266Z,14.80
2018-07-11T01:21:36.959Z,14.70
2018-07-11T01:24:05.066Z,14.60
2018-07-11T01:26:35.198Z,14.70
2018-07-11T01:29:03.373Z,14.70
2018-07-11T01:31:31.550Z,14.80
2018-07-11T01:34:00.080Z,14.90
2018-07-11T01:36:28.687Z,14.90
2018-07-11T01:38:57.702Z,15.00
2018-07-11T01:41:25.816Z,15.00
2018-07-11T01:43:54.094Z,15.10
2018-07-11T01:46:22.236Z,15.10
2018-07-11T01:48:50.377Z,15.10
2018-07-11T01:51:18.606Z,15.20
2018-07-11T01:53:46.768Z,15.20
2018-07-11T01:56:14.861Z,15.20
2018-07-11T01:58:46.951Z,15.20
2018-07-11T02:01:15.913Z,15.20
2018-07-11T02:03:44.088Z,15.20
2018-07-11T02:06:12.235Z,15.30
2018-07-11T02:08:40.379Z,15.20
2018-07-11T02:11:08.472Z,15.20
2018-07-11T02:13:36.528Z,15.20
2018-07-11T02:16:04.708Z,15.20
2018-07-11T02:18:35.126Z,15.20
2018-07-11T02:21:03.301Z,15.10
2018-07-11T02:23:34.514Z,15.10
2018-07-11T02:28:37.142Z,15.10
2018-07-11T02:31:05.246Z,15.10
2018-07-11T02:33:33.548Z,15.00
2018-07-11T02:36:01.657Z,15.00
2018-07-11T02:38:29.885Z,15.00
2018-07-11T02:40:57.989Z,14.90
2018-07-11T02:43:28.251Z,14.90
2018-07-11T02:45:56.375Z,14.90
2018-07-11T02:48:24.511Z,14.90
2018-07-11T02:50:52.674Z,15.00
2018-07-11T02:53:22.179Z,15.10
2018-07-11T02:55:51.380Z,15.10
2018-07-11T03:00:48.236Z,14.90
2018-07-11T03:03:16.625Z,15.00
2018-07-11T03:05:44.925Z,15.00
2018-07-11T03:08:13.967Z,15.10
2018-07-11T03:10:42.107Z,14.90
2018-07-11T03:13:10.208Z,14.90
2018-07-11T03:15:38.321Z,14.90
2018-07-11T03:18:06.509Z,14.90
2018-07-11T03:20:34.788Z,14.90
2018-07-11T03:23:02.901Z,15.00
2018-07-11T03:25:31.009Z,15.00
2018-07-11T03:27:59.163Z,15.00
2018-07-11T03:30:27.299Z,15.00
2018-07-11T03:32:55.599Z,15.00
2018-07-11T03:35:23.753Z,15.00
2018-07-11T03:37:52.149Z,15.00
2018-07-11T03:40:20.252Z,15.00
2018-07-11T03:42:48.406Z,15.00
2018-07-11T03:45:16.500Z,15.10
2018-07-11T03:47:44.665Z,15.10
2018-07-11T03:50:12.813Z,15.20
2018-07-11T03:52:41.063Z,15.10
2018-07-11T03:55:09.124Z,15.20
2018-07-11T03:57:37.249Z,15.20
2018-07-11T04:00:05.376Z,15.20
2018-07-11T04:02:33.559Z,15.20
2018-07-11T04:05:01.868Z,15.30
2018-07-11T04:07:30.028Z,15.30
2018-07-11T04:09:58.103Z,15.30
2018-07-11T04:12:26.231Z,15.40
2018-07-11T04:14:54.357Z,15.40
2018-07-11T04:17:22.664Z,15.40
2018-07-11T04:19:50.783Z,15.40
2018-07-11T04:22:18.908Z,15.50
2018-07-11T04:24:47.024Z,15.40
2018-07-11T04:27:15.180Z,15.30
2018-07-11T04:29:43.458Z,15.30
2018-07-11T04:32:11.683Z,15.30
2018-07-11T04:34:39.816Z,15.40
2018-07-11T04:37:08.026Z,15.30
2018-07-11T04:39:36.227Z,15.20
2018-07-11T04:42:04.364Z,15.40
2018-07-11T04:44:32.841Z,15.40
2018-07-11T04:47:01.221Z,15.40
2018-07-11T04:49:29.361Z,15.50
2018-07-11T04:51:57.484Z,15.50
2018-07-11T04:54:25.583Z,15.50
2018-07-11T04:56:53.688Z,15.40
2018-07-11T04:59:21.902Z,15.50
2018-07-11T05:01:50.025Z,15.70
2018-07-11T05:04:18.275Z,15.70
2018-07-11T05:06:46.375Z,15.60
2018-07-11T05:09:14.481Z,15.60
2018-07-11T05:14:10.660Z,15.80
2018-07-11T05:16:38.819Z,15.90
2018-07-11T05:19:06.953Z,16.00
2018-07-11T05:21:35.052Z,16.10
2018-07-11T05:24:03.267Z,16.40
2018-07-11T05:26:31.478Z,16.70
2018-07-11T05:28:59.863Z,16.80
2018-07-11T05:31:27.967Z,17.10
2018-07-11T05:33:56.126Z,17.30
2018-07-11T05:36:25.356Z,17.30
2018-07-11T05:38:53.623Z,17.40
2018-07-11T05:41:24.043Z,17.60
2018-07-11T05:43:53.569Z,17.50
2018-07-11T05:46:21.771Z,17.20
2018-07-11T05:48:50.707Z,17.40
2018-07-11T05:51:34.867Z,17.40
2018-07-11T05:54:03.003Z,17.50
2018-07-11T05:56:31.234Z,17.50
2018-07-11T05:59:04.407Z,17.60
2018-07-11T06:01:32.637Z,17.60
2018-07-11T06:04:01.385Z,17.70
2018-07-11T06:06:29.597Z,17.70
2018-07-11T06:08:57.800Z,17.80
2018-07-11T06:11:25.952Z,17.80
2018-07-11T06:13:54.617Z,18.00
2018-07-11T06:16:23.463Z,18.20
2018-07-11T06:18:51.588Z,18.40
2018-07-11T06:21:22.560Z,18.40
2018-07-11T06:23:50.687Z,18.10
2018-07-11T06:31:15.355Z,18.50
2018-07-11T06:33:43.609Z,18.70
2018-07-11T06:36:11.808Z,18.60
2018-07-11T06:38:39.875Z,18.60
2018-07-11T06:41:08.012Z,18.60
2018-07-11T06:46:04.668Z,18.70
2018-07-11T06:48:32.776Z,18.80
2018-07-11T06:51:01.501Z,18.90
2018-07-11T06:53:29.600Z,18.70
2018-07-11T06:55:57.820Z,18.70
2018-07-11T06:58:26.685Z,18.70
2018-07-11T07:00:57.124Z,18.80
2018-07-11T07:03:25.948Z,18.70
2018-07-11T07:05:54.175Z,18.70
2018-07-11T07:08:22.312Z,18.40
2018-07-11T07:10:50.414Z,18.30
2018-07-11T07:13:18.573Z,18.40
2018-07-11T07:15:46.649Z,18.60
2018-07-11T07:18:14.819Z,18.70
2018-07-11T07:20:44.105Z,18.30
2018-07-11T07:23:12.311Z,18.70
2018-07-11T07:25:40.424Z,19.00
2018-07-11T07:28:08.620Z,19.30
2018-07-11T07:30:36.811Z,19.50
2018-07-11T07:33:05.912Z,19.70
2018-07-11T07:38:02.107Z,19.80
2018-07-11T07:40:30.372Z,19.80
2018-07-11T07:42:58.719Z,20.00
2018-07-11T07:45:26.967Z,20.00
2018-07-11T07:47:59.228Z,20.20
2018-07-11T07:50:27.348Z,20.50
2018-07-11T07:52:55.464Z,20.40
2018-07-11T07:58:10.039Z,20.90
2018-07-11T08:00:38.244Z,21.30
2018-07-11T08:03:06.343Z,21.80
2018-07-11T08:05:35.899Z,21.80
2018-07-11T08:08:04.152Z,21.70
2018-07-11T08:10:32.637Z,21.70
2018-07-11T08:13:00.877Z,21.60
2018-07-11T08:15:30.015Z,22.30
2018-07-11T08:17:58.242Z,22.90
2018-07-11T08:20:26.524Z,23.10
2018-07-11T08:23:17.500Z,22.90
2018-07-11T08:25:58.540Z,22.60
2018-07-11T08:29:43.844Z,22.00
2018-07-11T08:34:32.136Z,21.80
2018-07-11T08:37:10.958Z,21.70
2018-07-11T08:42:03.794Z,21.60
2018-07-11T08:45:15.517Z,21.40
2018-07-11T08:48:09.916Z,21.60
2018-07-11T08:50:46.475Z,21.60
2018-07-11T08:53:26.094Z,21.40
2018-07-11T08:57:05.628Z,21.50
2018-07-11T08:59:58.208Z,21.10
2018-07-11T09:02:44.251Z,21.20
2018-07-11T09:05:23.858Z,21.20
2018-07-11T09:08:18.324Z,21.10
2018-07-11T09:11:02.788Z,21.10
2018-07-11T09:13:45.492Z,21.20
2018-07-11T09:18:34.689Z,21.10
2018-07-11T09:21:17.859Z,21.20
2018-07-11T09:24:51.015Z,21.40
2018-07-11T09:27:19.271Z,21.60
2018-07-11T09:32:16.213Z,21.90
2018-07-11T09:34:44.843Z,21.90
2018-07-11T09:37:12.988Z,22.00
2018-07-11T09:42:10.287Z,22.00
2018-07-11T09:44:38.452Z,22.10
2018-07-11T09:47:39.640Z,22.30
2018-07-11T09:50:07.823Z,22.50
2018-07-11T09:52:36.043Z,22.50
2018-07-11T09:55:04.223Z,22.50
2018-07-11T09:57:33.407Z,22.50
2018-07-11T10:02:29.475Z,22.60
2018-07-11T10:04:57.660Z,22.80
2018-07-11T10:07:26.496Z,22.80
2018-07-11T10:09:54.713Z,23.00
2018-07-11T10:12:22.821Z,23.00
2018-07-11T10:14:57.596Z,22.90
2018-07-11T10:17:25.676Z,23.00
2018-07-11T10:19:53.975Z,22.90
2018-07-11T10:24:50.118Z,23.10
2018-07-11T10:27:18.252Z,23.00
2018-07-11T10:29:49.741Z,23.10
2018-07-11T10:32:18.044Z,23.30
2018-07-11T10:34:46.159Z,23.50
2018-07-11T10:37:15.219Z,23.50
2018-07-11T10:39:43.396Z,23.30
2018-07-11T10:42:12.062Z,23.20
2018-07-11T10:44:40.394Z,23.30
2018-07-11T10:47:12.549Z,23.50
2018-07-11T10:49:41.317Z,23.50
2018-07-11T10:52:09.761Z,23.60
2018-07-11T10:54:39.237Z,23.50
2018-07-11T10:57:07.393Z,23.60
2018-07-11T10:59:35.506Z,23.60
2018-07-11T11:02:03.658Z,23.70
2018-07-11T11:04:31.956Z,23.70
2018-07-11T11:07:00.088Z,23.80
2018-07-11T11:09:28.216Z,23.70
2018-07-11T11:11:56.315Z,23.60
2018-07-11T11:14:24.429Z,23.80
2018-07-11T11:16:52.566Z,23.80
2018-07-11T11:19:20.719Z,23.80
2018-07-11T11:21:55.391Z,23.80
2018-07-11T11:24:23.478Z,23.70
2018-07-11T11:26:51.590Z,23.60
2018-07-11T11:29:19.731Z,23.70
2018-07-11T11:31:47.904Z,23.70
2018-07-11T11:34:16.006Z,23.60
2018-07-11T11:36:44.083Z,23.70
2018-07-11T11:39:12.294Z,23.80
2018-07-11T11:41:40.490Z,24.00
2018-07-11T11:44:08.560Z,24.00
2018-07-11T11:46:36.632Z,24.00
2018-07-11T11:49:04.799Z,24.00
2018-07-11T11:51:32.996Z,24.10
2018-07-11T11:54:01.192Z,24.20
2018-07-11T11:56:29.286Z,24.30
2018-07-11T11:58:57.336Z,24.20
2018-07-11T12:01:25.540Z,24.30
2018-07-11T12:03:53.756Z,24.20
2018-07-11T12:06:22.427Z,24.10
2018-07-11T12:08:54.943Z,24.20
2018-07-11T12:11:23.295Z,24.00
2018-07-11T12:13:51.516Z,24.20
2018-07-11T12:16:19.607Z,24.40
2018-07-11T12:21:15.791Z,24.40
2018-07-11T12:23:43.808Z,24.40
2018-07-11T12:26:11.827Z,24.20
2018-07-11T12:28:39.967Z,23.60
2018-07-11T12:31:08.243Z,23.80
2018-07-11T12:33:36.406Z,23.80
2018-07-11T12:36:04.767Z,23.70
2018-07-11T12:38:33.665Z,23.70
2018-07-11T12:41:01.797Z,23.60
2018-07-11T12:43:30.024Z,23.50
2018-07-11T12:45:58.381Z,23.50
2018-07-11T12:48:32.037Z,23.50
2018-07-11T12:51:00.463Z,23.50
2018-07-11T12:53:29.010Z,23.50
2018-07-11T12:55:57.198Z,23.40
2018-07-11T12:58:25.423Z,23.40
2018-07-11T13:00:53.718Z,23.40
2018-07-11T13:03:21.816Z,23.60
2018-07-11T13:05:50.063Z,23.60
2018-07-11T13:08:19.381Z,23.60
2018-07-11T13:10:47.867Z,23.50
2018-07-11T13:13:16.053Z,23.40
2018-07-11T13:15:44.414Z,23.40
2018-07-11T13:18:12.589Z,23.40
2018-07-11T13:20:40.691Z,23.50
2018-07-11T13:23:08.795Z,23.50
2018-07-11T13:25:37.007Z,23.70
2018-07-11T13:28:05.140Z,23.90
2018-07-11T13:30:33.253Z,24.10
2018-07-11T13:33:01.419Z,24.40
2018-07-11T13:35:29.696Z,24.80
2018-07-11T13:37:57.878Z,24.90
2018-07-11T13:40:25.967Z,24.90
2018-07-11T13:42:54.139Z,24.70
2018-07-11T13:45:22.356Z,24.50
2018-07-11T13:47:54.787Z,24.30
2018-07-11T13:50:22.944Z,24.20
2018-07-11T13:52:51.107Z,24.00
2018-07-11T13:55:20.024Z,23.80
2018-07-11T13:57:48.248Z,23.80
2018-07-11T14:00:16.414Z,23.90
2018-07-11T14:02:44.544Z,24.00
2018-07-11T14:05:12.755Z,23.90
2018-07-11T14:07:40.945Z,23.90
2018-07-11T14:10:09.086Z,23.70
2018-07-11T14:12:37.227Z,23.40
2018-07-11T14:15:05.365Z,23.40
2018-07-11T14:17:33.520Z,23.30
2018-07-11T14:20:01.741Z,23.20
2018-07-11T14:22:29.898Z,23.10
2018-07-11T14:24:57.997Z,23.00
2018-07-11T14:27:26.782Z,22.90
2018-07-11T14:29:54.975Z,22.90
2018-07-11T14:32:25.127Z,22.90
2018-07-11T14:34:53.298Z,23.00
2018-07-11T14:37:21.689Z,23.00
2018-07-11T14:39:49.878Z,23.10
2018-07-11T14:42:18.241Z,23.20
2018-07-11T14:44:46.445Z,23.30
2018-07-11T14:47:20.130Z,23.40
2018-07-11T14:52:17.019Z,23.50
2018-07-11T14:54:45.199Z,23.70
2018-07-11T14:57:13.818Z,23.70
2018-07-11T14:59:41.917Z,23.80
2018-07-11T15:02:10.056Z,23.90
2018-07-11T15:04:38.449Z,23.90
2018-07-11T15:07:06.578Z,23.60
2018-07-11T15:09:34.713Z,23.00
2018-07-11T15:12:02.830Z,22.20
2018-07-11T15:14:31.060Z,21.70
2018-07-11T15:16:59.246Z,21.40
2018-07-11T15:19:27.426Z,21.10
2018-07-11T15:21:55.620Z,20.90
2018-07-11T15:24:23.930Z,21.00
2018-07-11T15:26:52.114Z,21.00
2018-07-11T15:29:20.545Z,21.00
2018-07-11T15:34:17.306Z,21.10
2018-07-11T15:36:45.476Z,21.10
2018-07-11T15:39:13.653Z,21.10
2018-07-11T15:41:41.791Z,21.20
2018-07-11T15:44:09.932Z,21.30
2018-07-11T15:46:38.095Z,21.40
2018-07-11T15:49:06.302Z,21.40
2018-07-11T15:51:34.478Z,21.40
2018-07-11T15:54:02.563Z,21.40
2018-07-11T15:56:30.773Z,21.50
2018-07-11T15:59:05.184Z,21.40
2018-07-11T16:01:34.407Z,21.50
2018-07-11T16:06:31.051Z,21.60
2018-07-11T16:09:00.400Z,21.70
2018-07-11T16:11:29.162Z,21.70
2018-07-11T16:13:57.320Z,21.60
2018-07-11T16:16:25.424Z,21.50
2018-07-11T16:18:53.544Z,21.30
2018-07-11T16:21:21.755Z,21.20
2018-07-11T16:26:18.421Z,20.80
2018-07-11T16:28:46.725Z,20.70
2018-07-11T16:31:14.894Z,20.70
2018-07-11T16:33:43.015Z,20.70
2018-07-11T16:36:11.164Z,20.60
2018-07-11T16:38:39.287Z,20.60
2018-07-11T16:41:07.462Z,20.50
2018-07-11T16:43:35.706Z,20.50
2018-07-11T16:46:04.497Z,20.50
2018-07-11T16:48:32.645Z,20.40
2018-07-11T16:51:00.771Z,20.30
2018-07-11T16:53:28.876Z,20.20
2018-07-11T16:55:57.067Z,20.20
2018-07-11T16:58:28.234Z,20.20
2018-07-11T17:00:56.422Z,20.10
2018-07-11T17:03:26.820Z,20.10
2018-07-11T17:06:02.336Z,20.10
2018-07-11T17:08:32.295Z,20.10
2018-07-11T17:11:07.212Z,20.10
2018-07-11T17:13:35.304Z,20.20
2018-07-11T17:16:03.426Z,20.20
2018-07-11T17:18:39.286Z,20.40
2018-07-11T17:21:09.802Z,20.40
2018-07-11T17:23:47.379Z,20.40
2018-07-11T17:26:15.693Z,20.40
2018-07-11T17:28:44.652Z,20.50
2018-07-11T17:31:12.792Z,20.50
2018-07-11T17:33:40.964Z,20.50
2018-07-11T17:36:09.138Z,20.60
2018-07-11T17:38:37.488Z,20.60
2018-07-11T17:41:05.575Z,20.60
2018-07-11T17:43:36.592Z,20.60
2018-07-11T17:46:05.326Z,20.50
2018-07-11T17:49:13.557Z,20.50
2018-07-11T17:51:45.748Z,20.50
2018-07-11T17:54:13.880Z,20.40
2018-07-11T17:56:47.919Z,20.30
2018-07-11T17:59:16.207Z,20.30
2018-07-11T18:01:50.614Z,20.20
2018-07-11T18:04:32.867Z,20.20
2018-07-11T18:09:40.732Z,20.10
2018-07-11T18:12:21.860Z,20.10
2018-07-11T18:14:55.762Z,20.00
2018-07-11T18:18:02.240Z,20.00
2018-07-11T18:20:38.011Z,20.00
2018-07-11T18:23:22.635Z,20.00
2018-07-11T18:26:00.578Z,20.00
2018-07-11T18:28:40.167Z,20.00
2018-07-11T18:31:19.567Z,20.00
2018-07-11T18:33:58.853Z,20.00
2018-07-11T18:38:38.040Z,20.00
2018-07-11T18:41:12.855Z,19.90
2018-07-11T18:44:04.821Z,19.90
2018-07-11T18:46:50.411Z,19.90
2018-07-11T18:49:28.140Z,19.90
2018-07-11T18:52:10.712Z,19.80
2018-07-11T18:54:46.939Z,19.70
2018-07-11T18:57:26.193Z,19.70
2018-07-11T19:00:07.084Z,19.60
2018-07-11T19:02:46.672Z,19.50
2018-07-11T19:05:23.070Z,19.50
2018-07-11T19:07:55.691Z,19.40
2018-07-11T19:10:31.865Z,19.30
2018-07-11T19:13:00.267Z,19.30
2018-07-11T19:15:39.707Z,19.20
2018-07-11T19:18:19.335Z,19.10
2018-07-11T19:21:03.463Z,19.10
2018-07-11T19:23:40.480Z,19.00
2018-07-11T19:26:23.010Z,19.00
2018-07-11T19:28:57.573Z,19.00
2018-07-11T19:31:39.792Z,18.90
2018-07-11T19:34:37.964Z,18.90
2018-07-11T19:37:14.230Z,18.80
2018-07-11T19:39:54.022Z,18.80
2018-07-11T19:52:23.831Z,18.80
2018-07-11T19:57:05.398Z,18.70
2018-07-11T19:59:33.516Z,18.30
2018-07-11T20:02:01.680Z,18.10
2018-07-11T20:04:29.867Z,18.00
2018-07-11T20:06:57.999Z,17.90
2018-07-11T20:09:26.167Z,17.90
2018-07-11T20:11:54.392Z,17.80
2018-07-11T20:14:22.549Z,17.80
2018-07-11T20:16:50.614Z,17.70
2018-07-11T20:19:18.701Z,17.70
2018-07-11T20:21:46.861Z,17.60
2018-07-11T20:24:15.087Z,17.60
2018-07-11T20:26:43.235Z,17.60
2018-07-11T20:29:11.900Z,17.60
2018-07-11T20:31:40.096Z,17.60
2018-07-11T20:34:08.241Z,17.60
2018-07-11T20:36:36.338Z,17.50
2018-07-11T20:39:04.753Z,17.30
2018-07-11T20:41:32.880Z,17.10
2018-07-11T20:44:00.967Z,16.80
2018-07-11T20:46:29.137Z,16.40
2018-07-11T20:48:57.256Z,16.20
2018-07-11T20:51:25.419Z,16.10
2018-07-11T20:56:21.412Z,16.00
2018-07-11T20:59:01.041Z,16.10
2018-07-11T21:01:40.600Z,16.10
2018-07-11T21:05:23.157Z,16.00
2018-07-11T21:08:05.408Z,15.80
2018-07-11T21:10:44.636Z,15.70
2018-07-11T21:23:16.739Z,15.70
2018-07-11T21:25:45.435Z,15.70
2018-07-11T21:28:13.686Z,16.00
2018-07-11T21:30:41.810Z,15.90
2018-07-11T21:33:09.898Z,15.80
2018-07-11T21:35:38.149Z,15.60
2018-07-11T21:38:06.276Z,15.60
2018-07-11T21:40:34.372Z,15.60
2018-07-11T21:43:02.448Z,15.60
2018-07-11T21:45:30.533Z,15.70
2018-07-11T21:47:58.923Z,15.80
2018-07-11T21:50:27.076Z,15.80
2018-07-11T21:52:55.244Z,15.60
2018-07-11T21:55:23.370Z,15.60
2018-07-11T21:57:51.471Z,15.50
2018-07-11T22:00:31.268Z,15.50
2018-07-11T22:02:59.404Z,15.60
2018-07-11T22:05:28.179Z,15.70
2018-07-11T22:07:56.314Z,15.80
2018-07-11T22:10:24.418Z,15.80
2018-07-11T22:12:52.500Z,15.80
2018-07-11T22:15:20.590Z,15.70
2018-07-11T22:18:00.199Z,15.60
2018-07-11T22:20:27.458Z,15.60
2018-07-11T22:22:54.624Z,15.70
2018-07-11T22:25:21.882Z,15.70
2018-07-11T22:27:49.059Z,15.80
2018-07-11T22:30:16.262Z,15.80
2018-07-11T22:32:43.462Z,15.80
2018-07-11T22:35:10.685Z,15.80
2018-07-11T22:37:37.895Z,15.80
2018-07-11T22:40:05.098Z,15.70
2018-07-11T22:42:32.349Z,15.70
2018-07-11T22:44:59.537Z,15.70
2018-07-11T22:47:26.826Z,15.70
2018-07-11T22:49:59.511Z,15.80
2018-07-11T22:52:28.755Z,15.80
2018-07-11T22:54:56.139Z,15.70
2018-07-11T22:57:23.295Z,15.70
2018-07-11T22:59:51.070Z,15.70
2018-07-11T23:02:18.882Z,15.80
2018-07-11T23:04:46.089Z,15.80
2018-07-11T23:09:40.802Z,15.70
2018-07-11T23:12:07.966Z,15.70
2018-07-11T23:14:35.223Z,15.60
2018-07-11T23:17:03.075Z,15.60
2018-07-11T23:19:30.735Z,15.60
2018-07-11T23:21:58.343Z,15.60
2018-07-11T23:24:25.719Z,15.60
2018-07-11T23:26:53.126Z,15.70
2018-07-11T23:29:20.573Z,15.70
2018-07-11T23:34:15.414Z,16.00
2018-07-11T23:36:43.738Z,16.00
2018-07-11T23:39:12.012Z,16.10
2018-07-11T23:41:39.465Z,16.10
2018-07-11T23:44:06.740Z,16.10
2018-07-11T23:46:33.895Z,16.00
2018-07-11T23:49:01.146Z,15.90
2018-07-11T23:51:28.372Z,16.00
2018-07-11T23:53:55.559Z,16.00
2018-07-11T23:56:22.777Z,16.00
2018-07-11T23:58:49.967Z,16.00
